Time;durP1;ratioP1;P1;durP2;ratioP2;P2;SDS_P1;SDS_P2;PMS_P1;PMS_P2;Temp;Humidity;BMP_temperature;BMP_pressure;BME280_temperature;BME280_humidity;BME280_pressure;Samples;Min_cycle;Max_cycle;Signal;HPM_P1;HPM_P2
2022/05/06 00:02:10;;;;;;;3.65;1.70;;;10.30;99.90;;;;;;4273037;28;10000532;-75
2022/05/06 00:04:36;;;;;;;3.90;1.98;;;10.20;99.90;;;;;;4966592;28;20023;-74
2022/05/06 00:07:02;;;;;;;1.90;1.70;;;10.20;99.90;;;;;;4967092;28;20027;-74
2022/05/06 00:09:28;;;;;;;2.20;1.70;;;10.10;99.90;;;;;;4954877;28;20030;-73
2022/05/06 00:11:54;;;;;;;1.63;1.50;;;10.10;99.90;;;;;;4957076;28;20033;-75
2022/05/06 00:14:20;;;;;;;3.97;1.83;;;10.00;99.90;;;;;;4953580;28;20817;-75
2022/05/06 00:16:46;;;;;;;2.45;1.77;;;10.00;99.90;;;;;;4970259;28;20027;-75
2022/05/06 00:19:12;;;;;;;2.90;1.90;;;9.90;99.90;;;;;;4962182;28;20035;-75
2022/05/06 00:21:37;;;;;;;3.28;1.80;;;10.00;99.90;;;;;;4960635;28;20027;-74
2022/05/06 00:24:04;;;;;;;3.45;1.50;;;10.00;99.90;;;;;;4965533;28;20027;-74
2022/05/06 00:26:30;;;;;;;2.70;1.70;;;10.00;99.90;;;;;;4964567;28;20069;-74
2022/05/06 00:28:55;;;;;;;2.85;1.40;;;10.00;99.90;;;;;;4966853;28;20093;-75
2022/05/06 00:31:21;;;;;;;2.00;1.50;;;9.90;99.90;;;;;;4958479;28;20071;-75
2022/05/06 00:33:48;;;;;;;2.00;1.67;;;9.90;99.90;;;;;;4965626;28;20031;-75
2022/05/06 00:36:14;;;;;;;5.47;1.55;;;9.90;99.90;;;;;;4960697;28;20032;-75
2022/05/06 00:38:42;;;;;;;1.65;1.50;;;9.90;99.90;;;;;;4966198;28;20077;-75
2022/05/06 00:41:08;;;;;;;2.53;1.52;;;9.90;99.90;;;;;;4964997;28;20042;-75
2022/05/06 00:43:41;;;;;;;3.78;1.80;;;9.80;99.90;;;;;;4961492;28;20038;-75
2022/05/06 00:46:12;;;;;;;4.10;1.80;;;9.80;99.90;;;;;;4969254;28;20027;-75
2022/05/06 00:48:39;;;;;;;3.60;2.00;;;9.80;99.90;;;;;;4961005;28;20081;-75
2022/05/06 00:51:06;;;;;;;2.38;1.70;;;9.70;99.90;;;;;;4961615;28;20046;-75
2022/05/06 00:53:35;;;;;;;2.28;1.70;;;9.70;99.90;;;;;;4967083;28;20041;-74
2022/05/06 00:56:01;;;;;;;3.17;1.85;;;9.60;99.90;;;;;;4963258;28;20029;-74
2022/05/06 00:58:30;;;;;;;3.53;1.80;;;9.60;99.90;;;;;;4957601;28;20123;-74
2022/05/06 01:00:56;;;;;;;2.40;1.88;;;9.50;99.90;;;;;;4960921;28;20634;-75
2022/05/06 01:03:21;;;;;;;5.20;2.55;;;9.50;99.90;;;;;;4966994;28;20023;-74
2022/05/06 01:05:49;;;;;;;3.17;2.20;;;9.50;99.90;;;;;;4967418;28;20027;-74
2022/05/06 01:08:16;;;;;;;2.83;1.90;;;9.40;99.90;;;;;;4964302;28;20044;-74
2022/05/06 01:10:43;;;;;;;3.40;2.38;;;9.40;99.90;;;;;;4962482;28;20290;-74
2022/05/06 01:13:09;;;;;;;4.45;2.10;;;9.30;99.90;;;;;;4962350;28;20030;-74
2022/05/06 01:15:35;;;;;;;4.43;2.50;;;9.30;99.90;;;;;;4956230;28;20434;-75
2022/05/06 01:18:00;;;;;;;3.65;2.10;;;9.30;99.90;;;;;;4960875;28;20027;-74
2022/05/06 01:20:27;;;;;;;4.22;2.28;;;9.20;99.90;;;;;;4963375;28;20019;-75
2022/05/06 01:22:58;;;;;;;3.35;2.10;;;9.10;99.90;;;;;;4964697;28;20479;-74
2022/05/06 01:25:25;;;;;;;3.85;2.35;;;9.10;99.90;;;;;;4967230;28;20031;-74
2022/05/06 01:28:01;;;;;;;3.15;2.35;;;9.10;99.90;;;;;;4962965;28;20097;-74
2022/05/06 01:30:44;;;;;;;4.57;2.35;;;9.10;99.90;;;;;;4963625;28;20065;-74
2022/05/06 01:33:12;;;;;;;8.75;2.33;;;9.20;99.90;;;;;;4966335;28;20117;-74
2022/05/06 01:35:47;;;;;;;3.97;2.33;;;9.30;99.90;;;;;;4967376;28;20610;-75
2022/05/06 01:38:29;;;;;;;3.55;2.30;;;9.20;99.90;;;;;;4963980;28;20039;-74
2022/05/06 01:41:00;;;;;;;5.47;2.58;;;9.10;99.90;;;;;;4960618;28;20023;-74
2022/05/06 01:43:31;;;;;;;5.65;2.50;;;9.00;99.90;;;;;;4964587;28;20046;-74
2022/05/06 01:45:56;;;;;;;5.10;2.67;;;9.00;99.90;;;;;;4961806;28;20170;-75
2022/05/06 01:48:22;;;;;;;3.78;2.40;;;8.90;99.90;;;;;;4969363;28;20717;-74
2022/05/06 01:50:49;;;;;;;3.03;2.47;;;8.90;99.90;;;;;;4964843;28;20117;-74
2022/05/06 01:53:18;;;;;;;5.13;2.80;;;8.80;99.90;;;;;;4967140;28;20483;-74
2022/05/06 01:55:44;;;;;;;3.08;2.60;;;8.80;99.90;;;;;;4970832;28;20050;-74
2022/05/06 01:58:11;;;;;;;4.70;2.50;;;8.80;99.90;;;;;;4967458;28;20023;-74
2022/05/06 02:00:36;;;;;;;3.97;2.80;;;8.80;99.90;;;;;;4960415;28;20074;-74
2022/05/06 02:03:03;;;;;;;7.30;2.90;;;8.80;99.90;;;;;;4969578;28;20031;-74
2022/05/06 02:05:29;;;;;;;4.45;3.10;;;8.80;99.90;;;;;;4966023;28;20031;-74
2022/05/06 02:07:55;;;;;;;4.65;3.28;;;8.80;99.90;;;;;;4967973;28;20031;-74
2022/05/06 02:10:22;;;;;;;6.10;2.63;;;8.70;99.90;;;;;;4968106;28;20031;-74
2022/05/06 02:12:48;;;;;;;3.20;2.42;;;8.60;99.90;;;;;;4964442;28;20081;-74
2022/05/06 02:15:19;;;;;;;4.28;3.05;;;8.60;99.90;;;;;;4968841;28;20039;-74
2022/05/06 02:17:44;;;;;;;3.40;2.45;;;8.60;99.90;;;;;;4960855;28;20019;-74
2022/05/06 02:20:12;;;;;;;5.28;3.15;;;8.50;99.90;;;;;;4962421;28;20572;-74
2022/05/06 02:22:42;;;;;;;5.75;3.28;;;8.50;99.90;;;;;;4968251;28;20416;-74
2022/05/06 02:25:09;;;;;;;4.25;3.00;;;8.40;99.90;;;;;;4963836;28;20055;-75
2022/05/06 02:27:38;;;;;;;4.22;2.90;;;8.40;99.90;;;;;;4964817;28;20058;-74
2022/05/06 02:35:37;;;;;;;3.65;2.60;;;8.20;99.90;;;;;;4968615;28;20033;-74
2022/05/06 02:38:08;;;;;;;5.78;3.17;;;8.10;99.90;;;;;;4967627;28;20083;-74
2022/05/06 02:40:35;;;;;;;4.60;3.17;;;8.10;99.90;;;;;;4967232;28;20078;-74
2022/05/06 02:43:02;;;;;;;5.70;3.50;;;;;;;;;;4965228;28;20027;-75
2022/05/06 02:45:28;;;;;;;5.43;3.42;;;8.10;99.90;;;;;;4962414;28;20118;-74
2022/05/06 02:47:53;;;;;;;4.68;3.25;;;8.10;99.90;;;;;;4965734;28;20126;-74
2022/05/06 02:50:19;;;;;;;4.85;3.22;;;8.10;99.90;;;;;;4963047;28;20066;-74
2022/05/06 02:52:45;;;;;;;6.80;3.25;;;8.10;99.90;;;;;;4964829;28;20064;-74
2022/05/06 02:55:11;;;;;;;6.18;3.53;;;8.00;99.90;;;;;;4968046;28;20258;-75
2022/05/06 02:57:36;;;;;;;4.70;3.35;;;8.00;99.90;;;;;;4969325;28;20062;-74
2022/05/06 03:00:04;;;;;;;5.22;3.35;;;7.90;99.90;;;;;;4967230;28;20522;-75
2022/05/06 03:02:30;;;;;;;4.78;3.22;;;7.80;99.90;;;;;;4956673;28;20443;-75
2022/05/06 03:04:56;;;;;;;6.53;3.33;;;7.80;99.90;;;;;;4958949;28;20109;-74
2022/05/06 03:07:22;;;;;;;4.88;3.80;;;7.70;99.90;;;;;;4965133;28;20041;-74
2022/05/06 03:09:48;;;;;;;4.65;3.42;;;7.70;99.90;;;;;;4952688;28;20050;-75
2022/05/06 03:12:16;;;;;;;5.32;3.33;;;7.60;99.90;;;;;;4963321;28;20045;-75
2022/05/06 03:14:42;;;;;;;5.93;3.30;;;7.60;99.90;;;;;;4969252;28;20031;-74
2022/05/06 03:17:08;;;;;;;5.72;3.75;;;7.60;99.90;;;;;;4978274;28;20031;-74
2022/05/06 03:19:33;;;;;;;8.60;3.78;;;7.70;99.90;;;;;;4968696;28;20039;-74
2022/05/06 03:21:59;;;;;;;4.93;3.50;;;7.80;99.90;;;;;;4958391;28;20506;-74
2022/05/06 03:24:25;;;;;;;5.30;3.70;;;8.00;99.90;;;;;;4963380;28;20037;-74
2022/05/06 03:26:51;;;;;;;7.70;3.80;;;;;;;;;;4954337;28;20479;-75
2022/05/06 03:29:16;;;;;;;4.40;3.92;;;7.90;99.90;;;;;;4963526;28;20576;-74
2022/05/06 03:31:42;;;;;;;6.65;3.40;;;7.80;99.90;;;;;;4960364;28;20034;-74
2022/05/06 03:34:07;;;;;;;4.00;3.40;;;7.70;99.90;;;;;;4959178;28;20053;-74
2022/05/06 03:36:33;;;;;;;4.05;3.17;;;7.70;99.90;;;;;;4964650;28;20048;-74
2022/05/06 03:39:03;;;;;;;4.22;3.20;;;7.60;99.90;;;;;;4965540;28;20653;-74
2022/05/06 03:41:29;;;;;;;8.15;3.55;;;7.60;99.90;;;;;;4958627;28;20031;-74
2022/05/06 03:43:55;;;;;;;5.68;4.13;;;7.60;99.90;;;;;;4960840;28;20030;-74
2022/05/06 03:46:20;;;;;;;4.85;3.63;;;7.60;99.90;;;;;;4967504;28;20494;-74
2022/05/06 03:48:46;;;;;;;3.65;3.17;;;7.60;99.90;;;;;;4962720;28;20084;-74
2022/05/06 03:51:21;;;;;;;4.13;3.38;;;7.50;99.90;;;;;;4960619;28;20122;-74
2022/05/06 03:53:50;;;;;;;4.53;3.47;;;7.60;99.90;;;;;;4957776;28;20036;-74
2022/05/06 03:56:17;;;;;;;5.60;3.70;;;7.50;99.90;;;;;;4964625;28;20032;-74
2022/05/06 03:58:42;;;;;;;5.28;3.83;;;7.50;99.90;;;;;;4960605;28;20058;-74
2022/05/06 04:01:08;;;;;;;5.57;3.78;;;7.50;99.90;;;;;;4956344;28;20058;-74
2022/05/06 04:03:34;;;;;;;6.13;3.80;;;7.50;99.90;;;;;;4966135;28;20121;-74
2022/05/06 04:06:00;;;;;;;5.65;4.20;;;7.60;99.90;;;;;;4966202;28;20097;-73
2022/05/06 04:08:25;;;;;;;4.88;3.50;;;7.60;99.90;;;;;;4960945;28;20041;-74
2022/05/06 04:10:51;;;;;;;4.70;4.20;;;7.60;99.90;;;;;;4957967;28;20038;-74
2022/05/06 04:13:18;;;;;;;6.25;4.57;;;7.60;99.90;;;;;;4962118;28;20077;-73
2022/05/06 04:15:48;;;;;;;6.55;4.47;;;7.60;99.90;;;;;;4272428;28;10000687;-74
2022/05/06 04:18:14;;;;;;;5.53;4.15;;;7.60;99.90;;;;;;4956906;28;20824;-74
2022/05/06 04:23:30;;;;;;;5.07;4.10;;;7.60;99.90;;;;;;4955153;28;20399;-75
2022/05/06 04:26:07;;;;;;;5.45;4.00;;;7.60;99.90;;;;;;4953204;28;20034;-76
2022/05/06 04:28:34;;;;;;;7.80;4.10;;;7.70;99.90;;;;;;4954565;28;20034;-76
2022/05/06 04:31:00;;;;;;;5.45;3.95;;;7.80;99.90;;;;;;4951745;28;20054;-76
2022/05/06 04:33:27;;;;;;;4.60;3.55;;;7.90;99.90;;;;;;4956867;28;20038;-75
2022/05/06 04:35:57;;;;;;;5.20;4.05;;;7.90;99.90;;;;;;4960783;28;20030;-75
2022/05/06 04:38:23;;;;;;;5.97;3.90;;;7.90;99.90;;;;;;4965574;28;20588;-75
2022/05/06 04:40:50;;;;;;;6.05;4.20;;;7.90;99.90;;;;;;4955487;28;20032;-76
2022/05/06 04:43:20;;;;;;;5.53;4.10;;;7.90;99.90;;;;;;4954664;28;20038;-75
2022/05/06 04:45:47;;;;;;;5.95;4.20;;;7.90;99.90;;;;;;4971189;28;20133;-75
2022/05/06 04:48:13;;;;;;;5.35;4.20;;;8.00;99.90;;;;;;4967548;28;20031;-74
2022/05/06 04:50:39;;;;;;;7.47;4.00;;;8.00;99.90;;;;;;4960767;28;20527;-81
2022/05/06 04:53:07;;;;;;;8.90;4.25;;;8.00;99.90;;;;;;4966167;28;20046;-82
2022/05/06 04:55:38;;;;;;;4.13;3.53;;;8.10;99.90;;;;;;4948811;28;20034;-81
2022/05/06 04:58:04;;;;;;;4.65;3.83;;;8.20;99.90;;;;;;4954979;28;20110;-82
2022/05/06 05:00:31;;;;;;;5.68;4.00;;;8.30;99.90;;;;;;4953048;28;20051;-82
2022/05/06 05:02:59;;;;;;;4.88;3.78;;;8.40;99.90;;;;;;4956047;28;20058;-82
2022/05/06 05:05:25;;;;;;;5.78;4.18;;;8.50;99.90;;;;;;4958876;28;20043;-82
2022/05/06 05:07:52;;;;;;;7.68;4.22;;;8.60;99.90;;;;;;4966588;28;20037;-82
2022/05/06 05:10:17;;;;;;;6.32;4.18;;;8.60;99.90;;;;;;4962560;28;20192;-82
2022/05/06 05:12:43;;;;;;;5.47;4.40;;;8.60;99.90;;;;;;4963288;28;20497;-82
2022/05/06 05:15:10;;;;;;;4.97;4.15;;;8.60;99.90;;;;;;4956922;28;20101;-82
2022/05/06 05:17:36;;;;;;;5.65;3.90;;;8.60;99.90;;;;;;4960600;28;20109;-83
2022/05/06 05:20:02;;;;;;;5.43;4.07;;;8.60;99.90;;;;;;4963203;28;20057;-82
2022/05/06 05:22:28;;;;;;;6.57;4.65;;;8.60;99.90;;;;;;4966492;28;20368;-83
2022/05/06 05:24:54;;;;;;;5.25;4.10;;;8.60;99.90;;;;;;4960893;28;20053;-82
2022/05/06 05:27:20;;;;;;;5.38;3.65;;;8.70;99.90;;;;;;4968925;28;20403;-83
2022/05/06 05:29:46;;;;;;;6.45;3.70;;;8.70;99.90;;;;;;4963462;28;20031;-82
2022/05/06 05:32:12;;;;;;;4.20;3.80;;;8.70;99.90;;;;;;4950541;28;20033;-83
2022/05/06 05:34:40;;;;;;;6.30;3.70;;;8.70;99.90;;;;;;4962229;28;20065;-82
2022/05/06 05:37:06;;;;;;;4.68;3.65;;;8.70;99.90;;;;;;4969713;28;20097;-83
2022/05/06 05:39:32;;;;;;;6.07;4.22;;;8.60;99.90;;;;;;4967079;28;20086;-82
2022/05/06 05:41:57;;;;;;;5.15;4.38;;;8.60;99.90;;;;;;4958419;28;20039;-82
2022/05/06 05:49:51;;;;;;;6.95;4.63;;;8.50;99.90;;;;;;4940744;28;20050;-83
2022/05/06 05:52:17;;;;;;;5.65;4.72;;;8.50;99.90;;;;;;4946545;28;20417;-82
2022/05/06 05:54:42;;;;;;;7.25;5.05;;;8.50;99.90;;;;;;4943593;28;20277;-83
2022/05/06 05:57:08;;;;;;;7.93;5.05;;;8.50;99.90;;;;;;4945357;28;20559;-82
2022/05/06 05:59:34;;;;;;;5.88;4.82;;;8.50;99.90;;;;;;4943856;28;20030;-82
2022/05/06 06:02:03;;;;;;;7.40;4.85;;;8.60;99.90;;;;;;4950772;28;20197;-82
2022/05/06 06:04:29;;;;;;;6.50;4.55;;;8.60;99.90;;;;;;4946015;28;20576;-82
2022/05/06 06:06:56;;;;;;;8.32;4.90;;;8.70;99.90;;;;;;4955262;28;20035;-82
2022/05/06 06:09:22;;;;;;;8.48;5.10;;;8.80;99.90;;;;;;4946065;28;20031;-82
2022/05/06 06:11:49;;;;;;;8.23;5.43;;;8.80;99.90;;;;;;4953558;28;20038;-83
2022/05/06 06:14:16;;;;;;;7.55;4.95;;;8.90;99.90;;;;;;4947443;28;20039;-83
2022/05/06 06:16:42;;;;;;;9.15;5.10;;;8.90;99.90;;;;;;4958964;28;20038;-82
2022/05/06 06:19:08;;;;;;;6.47;5.22;;;8.90;99.90;;;;;;4949581;28;20049;-83
2022/05/06 06:21:34;;;;;;;7.15;4.90;;;8.90;99.90;;;;;;4950705;28;20062;-83
2022/05/06 06:24:00;;;;;;;8.05;5.05;;;9.00;99.90;;;;;;4960084;28;20054;-82
2022/05/06 06:26:25;;;;;;;6.85;4.82;;;9.10;99.90;;;;;;4959234;28;20662;-83
2022/05/06 06:28:51;;;;;;;5.93;4.60;;;9.20;99.90;;;;;;4957510;28;20054;-81
2022/05/06 06:31:16;;;;;;;9.18;4.93;;;9.30;99.90;;;;;;4961639;28;20454;-83
2022/05/06 06:33:43;;;;;;;7.78;4.93;;;9.40;99.90;;;;;;4951974;28;20045;-80
2022/05/06 06:36:08;;;;;;;9.68;4.68;;;9.50;99.90;;;;;;4957575;28;20037;-81
2022/05/06 06:38:35;;;;;;;10.75;5.50;;;9.60;99.90;;;;;;4955228;28;20019;-81
2022/05/06 06:41:01;;;;;;;12.20;5.35;;;9.80;99.90;;;;;;4952529;28;20042;-81
2022/05/06 06:43:26;;;;;;;5.75;4.75;;;10.00;99.90;;;;;;4955063;28;20314;-83
2022/05/06 06:45:52;;;;;;;7.40;5.25;;;10.20;99.90;;;;;;4960689;28;20039;-83
2022/05/06 06:48:18;;;;;;;8.50;5.43;;;10.40;99.90;;;;;;4959666;28;20534;-80
2022/05/06 06:50:44;;;;;;;10.02;5.28;;;10.70;99.90;;;;;;4954608;28;20046;-82
2022/05/06 06:53:10;;;;;;;9.35;5.43;;;11.00;99.90;;;;;;4961998;28;20031;-83
2022/05/06 06:55:36;;;;;;;5.72;4.65;;;11.30;99.90;;;;;;4961963;28;20026;-82
2022/05/06 06:58:02;;;;;;;6.88;4.82;;;11.80;99.90;;;;;;4960521;28;20097;-81
2022/05/06 07:00:28;;;;;;;7.38;4.80;;;12.00;99.90;;;;;;4958842;28;20450;-83
2022/05/06 07:02:55;;;;;;;6.80;4.55;;;12.40;99.90;;;;;;4953453;28;20031;-82
2022/05/06 07:05:22;;;;;;;7.72;4.60;;;12.60;99.90;;;;;;4957552;28;20047;-83
2022/05/06 07:13:17;;;;;;;6.97;4.80;;;13.50;99.90;;;;;;4961433;28;20101;-82
2022/05/06 07:15:43;;;;;;;6.07;4.50;;;13.80;99.90;;;;;;4962651;28;20497;-82
2022/05/06 07:18:08;;;;;;;6.03;4.88;;;13.90;99.90;;;;;;4963715;28;20109;-82
2022/05/06 07:20:34;;;;;;;6.75;4.60;;;14.10;99.90;;;;;;4954208;28;20038;-82
2022/05/06 07:22:59;;;;;;;7.40;4.20;;;14.40;99.90;;;;;;4958014;28;20030;-82
2022/05/06 07:25:25;;;;;;;6.72;3.97;;;14.50;99.90;;;;;;4944012;28;20113;-83
2022/05/06 07:27:51;;;;;;;7.38;4.63;;;14.70;99.90;;;;;;4944202;28;20035;-83
2022/05/06 07:30:16;;;;;;;7.10;4.43;;;14.90;99.90;;;;;;4961187;28;20049;-80
2022/05/06 07:32:42;;;;;;;5.57;4.18;;;15.10;99.90;;;;;;4939682;28;20042;-79
2022/05/06 07:35:09;;;;;;;6.75;4.32;;;15.50;99.90;;;;;;4955686;28;20043;-81
2022/05/06 07:37:34;;;;;;;4.32;3.72;;;15.80;99.90;;;;;;4960437;28;20422;-82
2022/05/06 07:40:01;;;;;;;6.72;3.60;;;15.90;99.90;;;;;;4947349;28;20027;-80
2022/05/06 07:42:28;;;;;;;5.45;3.90;;;16.20;99.90;;;;;;4953413;28;20019;-81
2022/05/06 07:44:55;;;;;;;5.35;3.88;;;16.40;99.90;;;;;;4961459;28;20045;-81
2022/05/06 07:47:21;;;;;;;6.20;3.50;;;16.60;99.90;;;;;;4961197;28;20578;-81
2022/05/06 07:49:46;;;;;;;4.88;3.63;;;16.70;99.90;;;;;;4962781;28;20078;-81
2022/05/06 07:52:12;;;;;;;8.73;3.58;;;16.80;99.90;;;;;;4955054;28;20529;-82
2022/05/06 07:54:38;;;;;;;6.95;3.33;;;16.90;99.90;;;;;;4958463;28;20126;-82
2022/05/06 07:57:03;;;;;;;7.93;3.63;;;17.00;99.90;;;;;;4952464;28;20037;-82
2022/05/06 07:59:29;;;;;;;6.20;3.70;;;17.10;99.90;;;;;;4958311;28;20081;-82
2022/05/06 08:04:40;;;;;;;10.85;3.40;;;17.40;99.90;;;;;;4960207;28;20447;-76
2022/05/06 08:07:07;;;;;;;6.93;3.40;;;17.60;99.90;;;;;;4957985;28;20101;-76
2022/05/06 08:09:34;;;;;;;6.80;3.05;;;17.80;99.90;;;;;;4959821;28;20035;-76
2022/05/06 08:12:00;;;;;;;6.22;3.55;;;17.90;99.10;;;;;;4960143;28;20054;-76
2022/05/06 08:14:25;;;;;;;6.25;3.85;;;18.00;98.40;;;;;;4956977;28;20106;-76
2022/05/06 08:16:51;;;;;;;4.63;3.17;;;18.00;97.40;;;;;;4972590;28;20031;-76
2022/05/06 08:19:18;;;;;;;4.70;3.38;;;18.10;97.90;;;;;;4960415;28;20033;-76
2022/05/06 08:21:44;;;;;;;4.72;2.90;;;18.20;97.00;;;;;;4957155;28;20027;-76
2022/05/06 08:24:10;;;;;;;6.15;2.88;;;18.30;95.60;;;;;;4964173;28;20027;-76
2022/05/06 08:26:36;;;;;;;7.63;3.50;;;18.30;93.90;;;;;;4963897;28;20064;-75
2022/05/06 08:29:03;;;;;;;4.80;3.00;;;18.30;93.80;;;;;;4959707;28;20023;-75
2022/05/06 08:31:31;;;;;;;7.65;2.60;;;18.30;94.30;;;;;;4955666;28;20487;-79
2022/05/06 08:33:57;;;;;;;6.82;2.20;;;18.30;92.30;;;;;;4960680;28;20133;-79
2022/05/06 08:36:23;;;;;;;3.83;1.73;;;18.40;91.20;;;;;;4950889;28;20046;-78
2022/05/06 08:38:49;;;;;;;4.45;1.70;;;18.40;87.50;;;;;;4958628;28;20398;-80
2022/05/06 08:41:15;;;;;;;4.78;1.70;;;18.40;83.00;;;;;;4951970;28;20246;-75
2022/05/06 08:43:40;;;;;;;3.88;1.85;;;18.50;81.60;;;;;;4963830;28;20114;-77
2022/05/06 08:51:39;;;;;;;4.53;1.95;;;18.70;81.00;;;;;;4961315;28;20046;-80
2022/05/06 08:54:05;;;;;;;4.05;1.80;;;18.80;81.30;;;;;;4614882;28;10000519;-80
2022/05/06 08:56:31;;;;;;;3.20;1.83;;;18.90;78.60;;;;;;4958740;28;20073;-79
2022/05/06 08:58:58;;;;;;;3.38;1.70;;;18.90;76.00;;;;;;4950185;28;20466;-78
2022/05/06 09:01:24;;;;;;;3.03;1.60;;;19.00;76.40;;;;;;4949925;28;20062;-78
2022/05/06 09:03:50;;;;;;;4.10;1.50;;;19.10;77.00;;;;;;4954116;28;20026;-80
2022/05/06 09:06:20;;;;;;;2.72;1.30;;;19.10;74.30;;;;;;4961297;28;20054;-78
2022/05/06 09:08:47;;;;;;;3.70;1.80;;;19.10;74.80;;;;;;4961774;28;20046;-79
2022/05/06 09:11:16;;;;;;;3.65;1.40;;;18.80;75.70;;;;;;4957134;28;20027;-79
2022/05/06 09:13:51;;;;;;;3.67;1.48;;;18.80;74.00;;;;;;4958388;28;20278;-81
2022/05/06 09:16:39;;;;;;;5.35;1.60;;;;;;;;;;4960168;28;20062;-79
2022/05/06 09:19:22;;;;;;;3.15;1.33;;;18.70;75.30;;;;;;4950399;28;20023;-77
2022/05/06 09:22:06;;;;;;;5.05;2.80;;;18.50;74.60;;;;;;4952653;28;20109;-77
2022/05/06 09:24:37;;;;;;;5.95;3.53;;;18.30;77.40;;;;;;4955696;28;20031;-78
2022/05/06 09:27:11;;;;;;;6.50;3.03;;;18.10;76.80;;;;;;4964856;28;20498;-79
2022/05/06 09:29:43;;;;;;;6.32;3.00;;;18.00;83.00;;;;;;4962351;28;20149;-77
2022/05/06 09:32:23;;;;;;;5.78;2.65;;;17.90;87.10;;;;;;4952035;28;20073;-78
2022/05/06 09:34:57;;;;;;;8.63;2.97;;;18.10;84.10;;;;;;4964418;28;20045;-78
2022/05/06 09:37:30;;;;;;;6.35;2.20;;;18.30;80.40;;;;;;4959314;28;20030;-78
2022/05/06 09:40:07;;;;;;;4.55;2.50;;;18.50;82.50;;;;;;4959578;28;20042;-78
2022/05/06 09:42:34;;;;;;;6.07;2.50;;;18.60;80.10;;;;;;4958630;28;20031;-77
2022/05/06 09:45:01;;;;;;;5.35;2.28;;;18.50;84.10;;;;;;4964601;28;20031;-77
2022/05/06 09:47:26;;;;;;;3.90;1.88;;;18.20;78.70;;;;;;4965211;28;20039;-77
2022/05/06 09:49:53;;;;;;;3.53;2.17;;;18.00;81.00;;;;;;4962860;28;20050;-77
2022/05/06 09:52:19;;;;;;;7.97;2.22;;;18.00;85.00;;;;;;4954534;28;20042;-77
2022/05/06 09:54:46;;;;;;;4.90;2.42;;;18.00;81.20;;;;;;4959627;28;20043;-77
2022/05/06 09:57:13;;;;;;;5.97;2.38;;;18.00;84.00;;;;;;4957715;28;20569;-77
2022/05/06 09:59:40;;;;;;;3.50;1.67;;;17.90;80.80;;;;;;4958056;28;20554;-77
2022/05/06 10:02:06;;;;;;;2.42;1.83;;;18.00;78.00;;;;;;4961758;28;20442;-77
2022/05/06 10:04:33;;;;;;;2.40;1.40;;;18.10;77.10;;;;;;4963976;28;20047;-77
2022/05/06 10:07:00;;;;;;;3.08;1.40;;;18.10;76.00;;;;;;4961952;28;20038;-77
2022/05/06 10:09:30;;;;;;;3.13;1.40;;;18.10;76.40;;;;;;4963079;28;20124;-76
2022/05/06 10:12:00;;;;;;;2.25;1.45;;;18.20;74.60;;;;;;4954995;28;20034;-78
2022/05/06 10:14:26;;;;;;;2.67;1.23;;;18.30;74.30;;;;;;4952035;28;20042;-76
2022/05/06 10:16:51;;;;;;;2.75;1.50;;;18.60;75.50;;;;;;4974525;28;20035;-76
2022/05/06 10:19:44;;;;;;;2.30;1.20;;;18.90;75.40;;;;;;4961521;28;20038;-76
2022/05/06 10:22:09;;;;;;;1.83;1.00;;;19.00;74.00;;;;;;4962957;28;20035;-75
2022/05/06 10:24:48;;;;;;;1.40;1.08;;;18.90;75.00;;;;;;4956467;28;20502;-76
2022/05/06 10:33:15;;;;;;;;;;;19.10;71.80;;;;;;4951365;28;20101;-77
2022/05/06 10:35:46;;;;;;;2.58;1.05;;;19.40;78.90;;;;;;4962092;28;20301;-77
2022/05/06 10:38:26;;;;;;;4.28;1.38;;;19.40;78.90;;;;;;4958687;28;20111;-77
2022/05/06 10:41:02;;;;;;;5.35;1.67;;;19.50;76.20;;;;;;4955328;28;20522;-77
2022/05/06 10:43:39;;;;;;;3.40;1.20;;;19.70;63.20;;;;;;4953494;28;20402;-77
2022/05/06 10:46:05;;;;;;;3.00;1.08;;;19.80;67.60;;;;;;4958155;28;20019;-77
2022/05/06 10:48:31;;;;;;;1.83;0.90;;;19.90;62.00;;;;;;4953676;28;20031;-77
2022/05/06 10:51:21;;;;;;;4.25;1.60;;;20.00;60.70;;;;;;4961137;28;20027;-76
2022/05/06 10:53:47;;;;;;;3.90;1.40;;;20.00;66.40;;;;;;4947678;28;20529;-76
2022/05/06 10:56:14;;;;;;;3.00;1.30;;;20.00;63.50;;;;;;4954131;28;20037;-77
2022/05/06 10:58:40;;;;;;;2.75;1.20;;;20.10;64.60;;;;;;4953868;28;20042;-76
2022/05/06 11:01:13;;;;;;;3.65;0.90;;;20.20;65.80;;;;;;4955317;28;20027;-79
2022/05/06 11:03:49;;;;;;;;;;;20.30;66.90;;;;;;4953168;28;20035;-78
2022/05/06 11:06:20;;;;;;;4.40;1.60;;;20.30;69.90;;;;;;4955912;28;19918;-75
2022/05/06 11:08:46;;;;;;;3.85;1.70;;;20.30;67.00;;;;;;4957276;28;20389;-77
2022/05/06 11:11:19;;;;;;;3.60;1.35;;;20.10;67.20;;;;;;4957456;28;20126;-77
2022/05/06 11:13:47;;;;;;;2.80;1.50;;;20.30;66.90;;;;;;4958316;28;20125;-77
2022/05/06 11:16:14;;;;;;;3.33;1.38;;;20.50;70.90;;;;;;4959399;28;20034;-76
2022/05/06 11:18:49;;;;;;;3.22;1.67;;;20.40;65.40;;;;;;4953669;28;20106;-77
2022/05/06 11:21:28;;;;;;;4.30;1.50;;;20.40;65.10;;;;;;4953978;28;20027;-77
2022/05/06 11:23:54;;;;;;;1.85;1.30;;;20.60;63.60;;;;;;4962462;28;20053;-77
2022/05/06 11:26:26;;;;;;;2.33;1.05;;;20.90;63.00;;;;;;4958648;28;20038;-77
2022/05/06 11:29:05;;;;;;;3.97;1.20;;;21.00;60.70;;;;;;4955241;28;20039;-78
2022/05/06 11:31:32;;;;;;;2.85;1.10;;;21.00;64.90;;;;;;4960331;28;20047;-77
2022/05/06 11:34:05;;;;;;;6.32;1.30;;;21.20;64.40;;;;;;4961689;28;20039;-77
2022/05/06 11:36:32;;;;;;;5.13;1.27;;;20.90;61.70;;;;;;4955444;28;20030;-78
2022/05/06 11:38:58;;;;;;;1.67;1.17;;;20.80;61.30;;;;;;4957226;28;20034;-78
2022/05/06 11:41:24;;;;;;;3.05;1.42;;;20.80;59.40;;;;;;4942868;28;20399;-78
2022/05/06 11:43:50;;;;;;;3.05;1.20;;;20.80;60.00;;;;;;4954590;28;20049;-77
2022/05/06 11:49:02;;;;;;;3.95;1.30;;;20.90;57.80;;;;;;4951656;28;20045;-70
2022/05/06 11:51:40;;;;;;;2.13;1.40;;;21.30;57.80;;;;;;4957242;28;20399;-69
2022/05/06 11:54:07;;;;;;;3.08;1.20;;;21.50;56.90;;;;;;4957804;28;20503;-70
2022/05/06 11:56:33;;;;;;;4.15;1.05;;;21.70;62.90;;;;;;4961411;28;20047;-70
2022/05/06 11:59:00;;;;;;;7.43;1.30;;;21.50;61.10;;;;;;4957978;28;20069;-71
2022/05/06 12:01:33;;;;;;;1.48;1.02;;;21.40;59.80;;;;;;4954181;28;20031;-70
2022/05/06 12:04:04;;;;;;;2.15;0.80;;;21.40;58.30;;;;;;4951805;28;20340;-73
2022/05/06 12:06:35;;;;;;;5.43;0.90;;;21.40;59.10;;;;;;4951875;28;20064;-72
2022/05/06 12:09:12;;;;;;;4.45;1.17;;;21.60;61.30;;;;;;4953900;28;20043;-71
2022/05/06 12:11:42;;;;;;;1.95;1.10;;;21.60;57.60;;;;;;4954332;28;20042;-70
2022/05/06 12:14:10;;;;;;;1.50;1.10;;;21.80;56.80;;;;;;4950118;28;20074;-69
2022/05/06 12:16:36;;;;;;;4.28;1.40;;;21.60;55.00;;;;;;4952157;28;20023;-70
2022/05/06 12:19:02;;;;;;;3.67;1.08;;;21.60;55.40;;;;;;4956957;28;20474;-71
2022/05/06 12:21:28;;;;;;;2.28;0.93;;;22.20;57.30;;;;;;4946389;28;20129;-70
2022/05/06 12:23:59;;;;;;;3.50;1.20;;;22.30;63.80;;;;;;4949341;28;20364;-71
2022/05/06 12:26:29;;;;;;;3.30;0.90;;;22.20;61.30;;;;;;4962560;28;20394;-71
2022/05/06 12:28:55;;;;;;;2.05;1.02;;;22.00;62.70;;;;;;4958270;28;20035;-71
2022/05/06 12:31:32;;;;;;;3.45;1.00;;;21.60;61.30;;;;;;4959431;28;20031;-72
2022/05/06 12:34:02;;;;;;;3.60;0.80;;;21.20;59.60;;;;;;4960242;28;20491;-72
2022/05/06 12:36:28;;;;;;;4.97;1.13;;;20.90;62.10;;;;;;4956933;28;20548;-71
2022/05/06 12:38:53;;;;;;;3.92;1.10;;;20.60;63.90;;;;;;4964210;28;20154;-71
2022/05/06 12:41:25;;;;;;;3.92;1.00;;;20.10;65.70;;;;;;4961348;28;20034;-71
2022/05/06 12:43:52;;;;;;;3.15;0.98;;;19.80;64.60;;;;;;4965927;28;20042;-71
2022/05/06 12:46:28;;;;;;;1.65;0.90;;;19.60;62.90;;;;;;4960001;28;20028;-72
2022/05/06 12:51:40;;;;;;;1.10;0.80;;;19.80;60.10;;;;;;4952116;28;20038;-71
2022/05/06 12:54:07;;;;;;;3.25;0.70;;;20.20;59.90;;;;;;4965947;28;20085;-71
2022/05/06 12:56:32;;;;;;;2.13;0.90;;;20.60;59.00;;;;;;4964354;28;20348;-71
2022/05/06 12:58:58;;;;;;;1.75;1.00;;;21.10;59.20;;;;;;4969446;28;20432;-71
2022/05/06 13:01:24;;;;;;;1.33;0.70;;;21.10;58.20;;;;;;4950719;28;20110;-71
2022/05/06 13:03:49;;;;;;;3.97;0.90;;;21.20;55.20;;;;;;4950984;28;20027;-72
2022/05/06 13:06:15;;;;;;;6.07;1.00;;;21.00;58.60;;;;;;4955851;28;20110;-72
2022/05/06 13:08:41;;;;;;;3.45;0.95;;;20.60;59.90;;;;;;4969410;28;20023;-72
2022/05/06 13:11:06;;;;;;;3.83;0.80;;;20.20;60.00;;;;;;4966877;28;20482;-71
2022/05/06 13:13:32;;;;;;;2.75;1.10;;;19.90;58.40;;;;;;4965732;28;20122;-71
2022/05/06 13:15:59;;;;;;;3.75;0.90;;;20.10;59.30;;;;;;4972317;28;20045;-72
2022/05/06 13:18:25;;;;;;;2.45;0.80;;;20.40;57.60;;;;;;4965816;28;20037;-71
2022/05/06 13:20:50;;;;;;;1.13;0.80;;;20.90;57.60;;;;;;4959481;28;20034;-72
2022/05/06 13:23:16;;;;;;;1.58;0.80;;;21.40;55.80;;;;;;4968763;28;20019;-72
2022/05/06 13:25:42;;;;;;;1.80;0.80;;;21.60;53.60;;;;;;4969044;28;20035;-72
2022/05/06 13:28:08;;;;;;;2.70;1.00;;;22.00;56.30;;;;;;4965500;28;20063;-71
2022/05/06 13:30:33;;;;;;;5.97;1.10;;;22.40;63.60;;;;;;4961524;28;20487;-71
2022/05/06 13:32:59;;;;;;;4.10;1.10;;;22.40;66.50;;;;;;4955299;28;20038;-71
2022/05/06 13:35:28;;;;;;;3.13;1.20;;;22.10;56.80;;;;;;4966357;28;20695;-72